sensor_id;sensor_type;location;lat;lon;timestamp;pressure;altitude;pressure_sealevel;temperature
24201;BMP280;2801;50.972;7.856;2023-04-01T00:00:45;95552.03;;;9.16
24201;BMP280;2801;50.972;7.856;2023-04-01T00:03:12;95555.44;;;9.13
24201;BMP280;2801;50.972;7.856;2023-04-01T00:05:39;95548.91;;;9.10
24201;BMP280;2801;50.972;7.856;2023-04-01T00:08:06;95551.94;;;9.09
24201;BMP280;2801;50.972;7.856;2023-04-01T00:10:33;95554.59;;;9.09
24201;BMP280;2801;50.972;7.856;2023-04-01T00:13:01;95555.38;;;9.09
24201;BMP280;2801;50.972;7.856;2023-04-01T00:15:28;95554.22;;;9.07
24201;BMP280;2801;50.972;7.856;2023-04-01T00:17:55;95547.66;;;9.04
24201;BMP280;2801;50.972;7.856;2023-04-01T00:20:24;95539.94;;;8.99
24201;BMP280;2801;50.972;7.856;2023-04-01T00:22:51;95547.25;;;9.02
24201;BMP280;2801;50.972;7.856;2023-04-01T00:25:18;95547.63;;;9.01
24201;BMP280;2801;50.972;7.856;2023-04-01T00:27:45;95545.72;;;9.01
24201;BMP280;2801;50.972;7.856;2023-04-01T00:30:12;95541.91;;;9.02
24201;BMP280;2801;50.972;7.856;2023-04-01T00:32:39;95546.91;;;9.04
24201;BMP280;2801;50.972;7.856;2023-04-01T00:35:07;95536.59;;;9.06
24201;BMP280;2801;50.972;7.856;2023-04-01T00:37:36;95537.38;;;9.06
24201;BMP280;2801;50.972;7.856;2023-04-01T00:40:06;95535.94;;;9.12
24201;BMP280;2801;50.972;7.856;2023-04-01T00:42:35;95534.72;;;9.06
24201;BMP280;2801;50.972;7.856;2023-04-01T00:47:54;95538.09;;;9.03
24201;BMP280;2801;50.972;7.856;2023-04-01T00:50:23;95538.88;;;9.04
24201;BMP280;2801;50.972;7.856;2023-04-01T00:52:52;95536.97;;;9.04
24201;BMP280;2801;50.972;7.856;2023-04-01T00:55:23;95539.94;;;8.99
24201;BMP280;2801;50.972;7.856;2023-04-01T00:57:53;95539.63;;;9.04
24201;BMP280;2801;50.972;7.856;2023-04-01T01:00:20;95528.91;;;9.01
24201;BMP280;2801;50.972;7.856;2023-04-01T01:02:50;95525.06;;;8.98
24201;BMP280;2801;50.972;7.856;2023-04-01T01:05:26;95531.09;;;8.95
24201;BMP280;2801;50.972;7.856;2023-04-01T01:11:08;95536.44;;;8.95
24201;BMP280;2801;50.972;7.856;2023-04-01T01:14:01;95534.22;;;8.97
24201;BMP280;2801;50.972;7.856;2023-04-01T01:16:45;95534.22;;;8.97
24201;BMP280;2801;50.972;7.856;2023-04-01T01:29:08;95519.72;;;8.98
24201;BMP280;2801;50.972;7.856;2023-04-01T01:31:59;95526.59;;;8.99
24201;BMP280;2801;50.972;7.856;2023-04-01T01:37:23;95525.81;;;8.99
24201;BMP280;2801;50.972;7.856;2023-04-01T01:40:00;95518.22;;;9.01
24201;BMP280;2801;50.972;7.856;2023-04-01T01:42:31;95518.56;;;8.99
24201;BMP280;2801;50.972;7.856;2023-04-01T01:45:01;95517.31;;;8.93
24201;BMP280;2801;50.972;7.856;2023-04-01T01:47:29;95517.75;;;8.95
24201;BMP280;2801;50.972;7.856;2023-04-01T01:49:57;95516.25;;;8.98
24201;BMP280;2801;50.972;7.856;2023-04-01T01:52:27;95520.00;;;8.93
24201;BMP280;2801;50.972;7.856;2023-04-01T01:54:57;95511.22;;;8.93
24201;BMP280;2801;50.972;7.856;2023-04-01T01:57:33;95507.78;;;8.92
24201;BMP280;2801;50.972;7.856;2023-04-01T02:00:12;95510.88;;;8.94
24201;BMP280;2801;50.972;7.856;2023-04-01T02:02:47;95503.63;;;8.95
24201;BMP280;2801;50.972;7.856;2023-04-01T02:05:21;95511.97;;;8.93
24201;BMP280;2801;50.972;7.856;2023-04-01T02:08:06;95512.38;;;8.92
24201;BMP280;2801;50.972;7.856;2023-04-01T02:10:39;95509.28;;;8.90
24201;BMP280;2801;50.972;7.856;2023-04-01T02:13:27;95509.28;;;8.90
24201;BMP280;2801;50.972;7.856;2023-04-01T02:16:01;95512.72;;;8.90
24201;BMP280;2801;50.972;7.856;2023-04-01T02:18:35;95508.13;;;8.91
24201;BMP280;2801;50.972;7.856;2023-04-01T02:21:05;95508.09;;;8.87
24201;BMP280;2801;50.972;7.856;2023-04-01T02:23:36;95509.22;;;8.86
24201;BMP280;2801;50.972;7.856;2023-04-01T02:26:07;95502.66;;;8.84
24201;BMP280;2801;50.972;7.856;2023-04-01T02:28:37;95509.50;;;8.81
24201;BMP280;2801;50.972;7.856;2023-04-01T02:31:06;95506.44;;;8.79
24201;BMP280;2801;50.972;7.856;2023-04-01T02:33:35;95508.75;;;8.81
24201;BMP280;2801;50.972;7.856;2023-04-01T02:36:05;95511.44;;;8.81
24201;BMP280;2801;50.972;7.856;2023-04-01T02:38:35;95502.63;;;8.80
24201;BMP280;2801;50.972;7.856;2023-04-01T02:41:03;95505.31;;;8.80
24201;BMP280;2801;50.972;7.856;2023-04-01T02:43:32;95509.50;;;8.81
24201;BMP280;2801;50.972;7.856;2023-04-01T02:45:59;95514.44;;;8.79
24201;BMP280;2801;50.972;7.856;2023-04-01T02:48:26;95510.22;;;8.78
24201;BMP280;2801;50.972;7.856;2023-04-01T02:50:53;95505.31;;;8.80
24201;BMP280;2801;50.972;7.856;2023-04-01T02:53:20;95503.81;;;8.83
24201;BMP280;2801;50.972;7.856;2023-04-01T02:55:47;95505.34;;;8.84
24201;BMP280;2801;50.972;7.856;2023-04-01T02:58:17;95507.63;;;8.82
24201;BMP280;2801;50.972;7.856;2023-04-01T03:00:44;95509.50;;;8.81
24201;BMP280;2801;50.972;7.856;2023-04-01T03:03:11;95517.84;;;8.76
24201;BMP280;2801;50.972;7.856;2023-04-01T03:05:40;95501.81;;;8.76
24201;BMP280;2801;50.972;7.856;2023-04-01T03:08:07;95508.69;;;8.77
24201;BMP280;2801;50.972;7.856;2023-04-01T03:10:34;95510.59;;;8.77
24201;BMP280;2801;50.972;7.856;2023-04-01T03:13:01;95505.19;;;8.73
24201;BMP280;2801;50.972;7.856;2023-04-01T03:15:28;95502.16;;;8.75
24201;BMP280;2801;50.972;7.856;2023-04-01T03:17:55;95506.00;;;8.77
24201;BMP280;2801;50.972;7.856;2023-04-01T03:20:22;95510.19;;;8.75
24201;BMP280;2801;50.972;7.856;2023-04-01T03:22:49;95513.97;;;8.74
24201;BMP280;2801;50.972;7.856;2023-04-01T03:25:17;95514.81;;;8.78
24201;BMP280;2801;50.972;7.856;2023-04-01T03:27:44;95511.00;;;8.79
24201;BMP280;2801;50.972;7.856;2023-04-01T03:30:12;95518.31;;;8.82
24201;BMP280;2801;50.972;7.856;2023-04-01T03:32:39;95516.78;;;8.81
24201;BMP280;2801;50.972;7.856;2023-04-01T03:35:06;95520.97;;;8.82
24201;BMP280;2801;50.972;7.856;2023-04-01T03:37:33;95521.75;;;8.82
24201;BMP280;2801;50.972;7.856;2023-04-01T03:40:00;95516.34;;;8.79
24201;BMP280;2801;50.972;7.856;2023-04-01T03:42:27;95520.19;;;8.81
24201;BMP280;2801;50.972;7.856;2023-04-01T03:44:54;95520.53;;;8.80
24201;BMP280;2801;50.972;7.856;2023-04-01T03:47:21;95527.44;;;8.81
24201;BMP280;2801;50.972;7.856;2023-04-01T03:49:48;95533.63;;;8.85
24201;BMP280;2801;50.972;7.856;2023-04-01T03:52:16;95524.72;;;8.77
24201;BMP280;2801;50.972;7.856;2023-04-01T03:54:42;95525.84;;;8.76
24201;BMP280;2801;50.972;7.856;2023-04-01T03:57:09;95523.22;;;8.80
24201;BMP280;2801;50.972;7.856;2023-04-01T03:59:36;95524.31;;;8.75
24201;BMP280;2801;50.972;7.856;2023-04-01T04:02:04;95510.59;;;8.77
24201;BMP280;2801;50.972;7.856;2023-04-01T04:04:31;95514.72;;;8.74
24201;BMP280;2801;50.972;7.856;2023-04-01T04:06:58;95507.47;;;8.71
24201;BMP280;2801;50.972;7.856;2023-04-01T04:09:25;95511.31;;;8.74
24201;BMP280;2801;50.972;7.856;2023-04-01T04:11:52;95509.00;;;8.72
24201;BMP280;2801;50.972;7.856;2023-04-01T04:14:19;95502.88;;;8.72
24201;BMP280;2801;50.972;7.856;2023-04-01T04:16:46;95507.06;;;8.73
24201;BMP280;2801;50.972;7.856;2023-04-01T04:19:13;95496.00;;;8.71
24201;BMP280;2801;50.972;7.856;2023-04-01T04:21:41;95506.25;;;8.69
24201;BMP280;2801;50.972;7.856;2023-04-01T04:24:09;95511.22;;;8.70
24201;BMP280;2801;50.972;7.856;2023-04-01T04:26:36;95507.69;;;8.63
24201;BMP280;2801;50.972;7.856;2023-04-01T04:29:03;95511.13;;;8.63
24201;BMP280;2801;50.972;7.856;2023-04-01T04:31:30;95509.22;;;8.64
24201;BMP280;2801;50.972;7.856;2023-04-01T04:33:59;95518.38;;;8.63
24201;BMP280;2801;50.972;7.856;2023-04-01T04:36:27;95515.28;;;8.61
24201;BMP280;2801;50.972;7.856;2023-04-01T04:38:54;95509.59;;;8.62
24201;BMP280;2801;50.972;7.856;2023-04-01T04:41:21;95518.72;;;8.61
24201;BMP280;2801;50.972;7.856;2023-04-01T04:43:56;95503.84;;;8.60
24201;BMP280;2801;50.972;7.856;2023-04-01T04:46:25;95526.31;;;8.59
24201;BMP280;2801;50.972;7.856;2023-04-01T04:48:52;95515.63;;;8.59
24201;BMP280;2801;50.972;7.856;2023-04-01T04:51:20;95514.94;;;8.62
24201;BMP280;2801;50.972;7.856;2023-04-01T04:53:48;95524.06;;;8.61
24201;BMP280;2801;50.972;7.856;2023-04-01T04:56:20;95529.81;;;8.63
24201;BMP280;2801;50.972;7.856;2023-04-01T04:58:48;95521.78;;;8.63
24201;BMP280;2801;50.972;7.856;2023-04-01T05:01:16;95535.16;;;8.63
24201;BMP280;2801;50.972;7.856;2023-04-01T05:03:44;95534.31;;;8.59
24201;BMP280;2801;50.972;7.856;2023-04-01T05:06:14;95524.47;;;8.63
24201;BMP280;2801;50.972;7.856;2023-04-01T05:08:43;95526.06;;;8.68
24201;BMP280;2801;50.972;7.856;2023-04-01T05:11:19;95531.31;;;8.61
24201;BMP280;2801;50.972;7.856;2023-04-01T05:13:47;95534.03;;;8.64
24201;BMP280;2801;50.972;7.856;2023-04-01T05:16:18;95529.88;;;8.67
24201;BMP280;2801;50.972;7.856;2023-04-01T05:18:46;95528.75;;;8.68
24201;BMP280;2801;50.972;7.856;2023-04-01T05:21:15;95539.44;;;8.68
24201;BMP280;2801;50.972;7.856;2023-04-01T05:23:42;95523.00;;;8.66
24201;BMP280;2801;50.972;7.856;2023-04-01T05:26:13;95535.28;;;8.70
24201;BMP280;2801;50.972;7.856;2023-04-01T05:28:41;95529.94;;;8.70
24201;BMP280;2801;50.972;7.856;2023-04-01T05:31:09;95542.19;;;8.71
24201;BMP280;2801;50.972;7.856;2023-04-01T05:33:36;95542.94;;;8.72
24201;BMP280;2801;50.972;7.856;2023-04-01T05:36:15;95546.75;;;8.71
24201;BMP280;2801;50.972;7.856;2023-04-01T05:38:42;95544.47;;;8.73
24201;BMP280;2801;50.972;7.856;2023-04-01T05:41:10;95546.03;;;8.74
24201;BMP280;2801;50.972;7.856;2023-04-01T05:43:39;95549.09;;;8.76
24201;BMP280;2801;50.972;7.856;2023-04-01T05:46:06;95550.66;;;8.77
24201;BMP280;2801;50.972;7.856;2023-04-01T05:48:34;95533.44;;;8.74
24201;BMP280;2801;50.972;7.856;2023-04-01T05:51:03;95546.16;;;8.81
24201;BMP280;2801;50.972;7.856;2023-04-01T05:53:31;95548.03;;;8.80
24201;BMP280;2801;50.972;7.856;2023-04-01T05:56:03;95553.75;;;8.79
24201;BMP280;2801;50.972;7.856;2023-04-01T05:58:30;95537.31;;;8.77
24201;BMP280;2801;50.972;7.856;2023-04-01T06:01:10;95551.84;;;8.79
24201;BMP280;2801;50.972;7.856;2023-04-01T06:03:42;95543.84;;;8.79
24201;BMP280;2801;50.972;7.856;2023-04-01T06:06:29;95545.72;;;8.79
24201;BMP280;2801;50.972;7.856;2023-04-01T06:09:07;95554.91;;;8.81
24201;BMP280;2801;50.972;7.856;2023-04-01T06:14:40;95544.22;;;8.81
24201;BMP280;2801;50.972;7.856;2023-04-01T06:17:27;95546.25;;;8.88
24201;BMP280;2801;50.972;7.856;2023-04-01T06:33:30;95561.44;;;9.06
24201;BMP280;2801;50.972;7.856;2023-04-01T06:39:09;95560.41;;;9.14
24201;BMP280;2801;50.972;7.856;2023-04-01T06:42:28;95568.13;;;9.19
24201;BMP280;2801;50.972;7.856;2023-04-01T06:52:02;95558.72;;;9.29
24201;BMP280;2801;50.972;7.856;2023-04-01T06:54:38;95561.00;;;9.27
24201;BMP280;2801;50.972;7.856;2023-04-01T06:57:39;95566.66;;;9.22
24201;BMP280;2801;50.972;7.856;2023-04-01T07:00:46;95570.03;;;9.19
24201;BMP280;2801;50.972;7.856;2023-04-01T07:03:35;95579.59;;;9.20
24201;BMP280;2801;50.972;7.856;2023-04-01T07:06:08;95573.53;;;9.23
24201;BMP280;2801;50.972;7.856;2023-04-01T07:08:43;95576.56;;;9.21
24201;BMP280;2801;50.972;7.856;2023-04-01T07:11:24;95573.56;;;9.26
24201;BMP280;2801;50.972;7.856;2023-04-01T07:16:39;95572.88;;;9.29
24201;BMP280;2801;50.972;7.856;2023-04-01T07:19:59;95572.44;;;9.27
24201;BMP280;2801;50.972;7.856;2023-04-01T07:25:07;95583.19;;;9.31
24201;BMP280;2801;50.972;7.856;2023-04-01T07:27:37;95574.34;;;9.27
24201;BMP280;2801;50.972;7.856;2023-04-01T07:30:16;95593.47;;;9.29
24201;BMP280;2801;50.972;7.856;2023-04-01T07:33:08;95587.00;;;9.30
24201;BMP280;2801;50.972;7.856;2023-04-01T07:35:59;95593.91;;;9.31
24201;BMP280;2801;50.972;7.856;2023-04-01T07:38:57;95597.41;;;9.35
24201;BMP280;2801;50.972;7.856;2023-04-01T07:56:32;95604.34;;;9.65
24201;BMP280;2801;50.972;7.856;2023-04-01T08:01:54;95603.34;;;9.77
24201;BMP280;2801;50.972;7.856;2023-04-01T08:07:27;95611.00;;;9.78
24201;BMP280;2801;50.972;7.856;2023-04-01T08:22:09;95620.44;;;9.98
24201;BMP280;2801;50.972;7.856;2023-04-01T08:24:46;95633.59;;;10.07
24201;BMP280;2801;50.972;7.856;2023-04-01T08:27:34;95626.44;;;10.14
24201;BMP280;2801;50.972;7.856;2023-04-01T08:30:38;95635.06;;;10.34
24201;BMP280;2801;50.972;7.856;2023-04-01T08:33:28;95637.22;;;10.51
24201;BMP280;2801;50.972;7.856;2023-04-01T08:36:17;95626.16;;;10.56
24201;BMP280;2801;50.972;7.856;2023-04-01T08:42:31;95635.06;;;10.63
24201;BMP280;2801;50.972;7.856;2023-04-01T08:48:40;95636.31;;;10.76
24201;BMP280;2801;50.972;7.856;2023-04-01T08:54:58;95630.69;;;10.85
24201;BMP280;2801;50.972;7.856;2023-04-01T09:00:33;95647.84;;;10.77
24201;BMP280;2801;50.972;7.856;2023-04-01T09:09:32;95647.31;;;10.64
24201;BMP280;2801;50.972;7.856;2023-04-01T09:18:32;95662.94;;;10.59
24201;BMP280;2801;50.972;7.856;2023-04-01T09:21:41;95663.03;;;10.66
24201;BMP280;2801;50.972;7.856;2023-04-01T09:27:27;95671.63;;;10.85
24201;BMP280;2801;50.972;7.856;2023-04-01T09:35:50;95675.63;;;10.65
24201;BMP280;2801;50.972;7.856;2023-04-01T09:39:36;95685.53;;;10.61
24201;BMP280;2801;50.972;7.856;2023-04-01T09:42:45;95680.47;;;10.53
24201;BMP280;2801;50.972;7.856;2023-04-01T09:45:41;95681.25;;;10.53
24201;BMP280;2801;50.972;7.856;2023-04-01T09:48:30;95687.00;;;10.55
24201;BMP280;2801;50.972;7.856;2023-04-01T10:24:05;95703.16;;;10.62
24201;BMP280;2801;50.972;7.856;2023-04-01T10:27:10;95706.34;;;10.71
24201;BMP280;2801;50.972;7.856;2023-04-01T10:56:58;95725.69;;;10.91
24201;BMP280;2801;50.972;7.856;2023-04-01T10:59:41;95723.44;;;10.96
24201;BMP280;2801;50.972;7.856;2023-04-01T11:15:17;95737.34;;;11.05
24201;BMP280;2801;50.972;7.856;2023-04-01T11:27:38;95753.53;;;10.83
24201;BMP280;2801;50.972;7.856;2023-04-01T11:39:07;95759.59;;;10.76
24201;BMP280;2801;50.972;7.856;2023-04-01T11:41:50;95767.28;;;10.78
24201;BMP280;2801;50.972;7.856;2023-04-01T11:44:26;95771.84;;;10.77
24201;BMP280;2801;50.972;7.856;2023-04-01T11:47:18;95774.53;;;10.77
24201;BMP280;2801;50.972;7.856;2023-04-01T11:50:33;95774.16;;;10.75
24201;BMP280;2801;50.972;7.856;2023-04-01T11:56:45;95779.91;;;10.77
24201;BMP280;2801;50.972;7.856;2023-04-01T11:59:44;95780.69;;;10.78
24201;BMP280;2801;50.972;7.856;2023-04-01T12:05:37;95797.94;;;10.80
24201;BMP280;2801;50.972;7.856;2023-04-01T12:11:26;95796.41;;;10.79
24201;BMP280;2801;50.972;7.856;2023-04-01T12:24:03;95807.25;;;10.90
24201;BMP280;2801;50.972;7.856;2023-04-01T12:27:20;95817.59;;;10.91
24201;BMP280;2801;50.972;7.856;2023-04-01T12:36:45;95820.09;;;11.07
24201;BMP280;2801;50.972;7.856;2023-04-01T12:45:03;95830.50;;;11.12
24201;BMP280;2801;50.972;7.856;2023-04-01T12:51:20;95830.94;;;11.17
24201;BMP280;2801;50.972;7.856;2023-04-01T12:54:24;95839.31;;;11.12
24201;BMP280;2801;50.972;7.856;2023-04-01T13:03:20;95846.81;;;11.00
24201;BMP280;2801;50.972;7.856;2023-04-01T13:17:30;95874.38;;;11.00
24201;BMP280;2801;50.972;7.856;2023-04-01T13:28:35;95871.72;;;11.00
24201;BMP280;2801;50.972;7.856;2023-04-01T13:31:43;95868.50;;;10.88
24201;BMP280;2801;50.972;7.856;2023-04-01T13:37:23;95880.22;;;10.80
24201;BMP280;2801;50.972;7.856;2023-04-01T13:40:01;95878.91;;;10.67
24201;BMP280;2801;50.972;7.856;2023-04-01T13:42:53;95884.69;;;10.69
24201;BMP280;2801;50.972;7.856;2023-04-01T14:06:28;95896.75;;;11.41
24201;BMP280;2801;50.972;7.856;2023-04-01T14:12:26;95905.19;;;11.43
24201;BMP280;2801;50.972;7.856;2023-04-01T14:18:22;95898.22;;;11.35
24201;BMP280;2801;50.972;7.856;2023-04-01T14:27:29;95910.72;;;11.24
24201;BMP280;2801;50.972;7.856;2023-04-01T14:30:35;95913.72;;;11.19
24201;BMP280;2801;50.972;7.856;2023-04-01T14:33:47;95919.03;;;11.15
24201;BMP280;2801;50.972;7.856;2023-04-01T14:36:41;95924.81;;;11.17
24201;BMP280;2801;50.972;7.856;2023-04-01T14:51:20;95933.22;;;11.16
24201;BMP280;2801;50.972;7.856;2023-04-01T14:54:15;95931.63;;;11.11
24201;BMP280;2801;50.972;7.856;2023-04-01T14:57:14;95938.13;;;11.10
24201;BMP280;2801;50.972;7.856;2023-04-01T14:59:54;95935.06;;;11.12
24201;BMP280;2801;50.972;7.856;2023-04-01T15:05:39;95934.09;;;11.23
24201;BMP280;2801;50.972;7.856;2023-04-01T15:08:26;95937.91;;;11.22
24201;BMP280;2801;50.972;7.856;2023-04-01T15:28:07;95966.28;;;10.97
24201;BMP280;2801;50.972;7.856;2023-04-01T15:34:25;95976.19;;;10.93
24201;BMP280;2801;50.972;7.856;2023-04-01T15:37:14;95982.97;;;10.87
24201;BMP280;2801;50.972;7.856;2023-04-01T15:43:24;95985.97;;;10.82
24201;BMP280;2801;50.972;7.856;2023-04-01T15:46:36;95988.59;;;10.79
24201;BMP280;2801;50.972;7.856;2023-04-01T15:49:39;95988.53;;;10.75
24201;BMP280;2801;50.972;7.856;2023-04-01T16:20:02;96024.22;;;10.79
24201;BMP280;2801;50.972;7.856;2023-04-01T16:22:39;96021.94;;;10.81
24201;BMP280;2801;50.972;7.856;2023-04-01T16:25:45;96022.66;;;10.78
24201;BMP280;2801;50.972;7.856;2023-04-01T16:28:28;96019.88;;;10.71
24201;BMP280;2801;50.972;7.856;2023-04-01T16:34:34;96021.63;;;10.64
24201;BMP280;2801;50.972;7.856;2023-04-01T16:37:38;96035.38;;;10.62
24201;BMP280;2801;50.972;7.856;2023-04-01T16:40:50;96035.75;;;10.61
24201;BMP280;2801;50.972;7.856;2023-04-01T16:43:41;96041.75;;;10.54
24201;BMP280;2801;50.972;7.856;2023-04-01T16:46:31;96045.88;;;10.48
24201;BMP280;2801;50.972;7.856;2023-04-01T16:55:01;96059.28;;;10.48
24201;BMP280;2801;50.972;7.856;2023-04-01T16:57:51;96061.94;;;10.48
24201;BMP280;2801;50.972;7.856;2023-04-01T17:00:30;96068.00;;;10.45
24201;BMP280;2801;50.972;7.856;2023-04-01T17:03:34;96067.56;;;10.43
24201;BMP280;2801;50.972;7.856;2023-04-01T17:06:39;96080.13;;;10.39
24201;BMP280;2801;50.972;7.856;2023-04-01T17:37:04;96130.19;;;10.16
24201;BMP280;2801;50.972;7.856;2023-04-01T17:42:22;96128.56;;;10.12
24201;BMP280;2801;50.972;7.856;2023-04-01T17:46:02;96141.19;;;10.11
24201;BMP280;2801;50.972;7.856;2023-04-01T18:14:43;96173.13;;;10.04
24201;BMP280;2801;50.972;7.856;2023-04-01T18:18:23;96181.84;;;10.01
24201;BMP280;2801;50.972;7.856;2023-04-01T18:24:45;96192.22;;;10.03
24201;BMP280;2801;50.972;7.856;2023-04-01T18:28:40;96196.44;;;10.04
24201;BMP280;2801;50.972;7.856;2023-04-01T18:30:36;96201.13;;;10.07
24201;BMP280;2801;50.972;7.856;2023-04-01T18:33:29;96208.28;;;10.03
24201;BMP280;2801;50.972;7.856;2023-04-01T18:36:15;96208.97;;;10.00
24201;BMP280;2801;50.972;7.856;2023-04-01T18:39:02;96220.09;;;10.02
24201;BMP280;2801;50.972;7.856;2023-04-01T18:42:07;96221.66;;;10.03
24201;BMP280;2801;50.972;7.856;2023-04-01T18:44:51;96222.09;;;10.05
24201;BMP280;2801;50.972;7.856;2023-04-01T18:47:41;96224.88;;;10.08
24201;BMP280;2801;50.972;7.856;2023-04-01T18:53:39;96234.97;;;9.99
24201;BMP280;2801;50.972;7.856;2023-04-01T18:56:37;96242.84;;;9.92
24201;BMP280;2801;50.972;7.856;2023-04-01T18:59:18;96244.72;;;9.92
24201;BMP280;2801;50.972;7.856;2023-04-01T19:07:45;96256.47;;;9.87
24201;BMP280;2801;50.972;7.856;2023-04-01T19:21:28;96269.44;;;9.85
24201;BMP280;2801;50.972;7.856;2023-04-01T19:39:00;96291.19;;;9.84
24201;BMP280;2801;50.972;7.856;2023-04-01T19:42:15;96292.66;;;9.81
24201;BMP280;2801;50.972;7.856;2023-04-01T19:50:58;96296.09;;;9.82
24201;BMP280;2801;50.972;7.856;2023-04-01T19:56:20;96312.94;;;9.82
24201;BMP280;2801;50.972;7.856;2023-04-01T20:02:25;96319.16;;;9.86
24201;BMP280;2801;50.972;7.856;2023-04-01T20:05:26;96322.16;;;9.85
24201;BMP280;2801;50.972;7.856;2023-04-01T20:11:01;96329.44;;;9.84
24201;BMP280;2801;50.972;7.856;2023-04-01T20:14:03;96343.16;;;9.83
24201;BMP280;2801;50.972;7.856;2023-04-01T20:16:50;96345.84;;;9.83
24201;BMP280;2801;50.972;7.856;2023-04-01T20:19:53;96345.06;;;9.82
24201;BMP280;2801;50.972;7.856;2023-04-01T20:25:17;96351.78;;;9.76
24201;BMP280;2801;50.972;7.856;2023-04-01T20:30:54;96363.59;;;9.75
24201;BMP280;2801;50.972;7.856;2023-04-01T20:45:38;96377.31;;;9.74
24201;BMP280;2801;50.972;7.856;2023-04-01T20:51:14;96385.47;;;9.77
24201;BMP280;2801;50.972;7.856;2023-04-01T20:54:17;96391.56;;;9.78
24201;BMP280;2801;50.972;7.856;2023-04-01T20:57:09;96397.38;;;9.80
24201;BMP280;2801;50.972;7.856;2023-04-01T20:59:58;96396.34;;;9.84
24201;BMP280;2801;50.972;7.856;2023-04-01T21:02:51;96400.47;;;9.82
24201;BMP280;2801;50.972;7.856;2023-04-01T21:38:29;96445.41;;;9.61
24201;BMP280;2801;50.972;7.856;2023-04-01T21:41:22;96456.53;;;9.63
24201;BMP280;2801;50.972;7.856;2023-04-01T22:01:34;96476.06;;;9.63
24201;BMP280;2801;50.972;7.856;2023-04-01T22:07:18;96483.19;;;9.59
24201;BMP280;2801;50.972;7.856;2023-04-01T22:09:52;96486.34;;;9.61
24201;BMP280;2801;50.972;7.856;2023-04-01T22:12:33;96492.78;;;9.60
24201;BMP280;2801;50.972;7.856;2023-04-01T22:18:33;96495.44;;;9.60
24201;BMP280;2801;50.972;7.856;2023-04-01T22:21:18;96497.78;;;9.62
24201;BMP280;2801;50.972;7.856;2023-04-01T22:23:56;96507.50;;;9.66
24201;BMP280;2801;50.972;7.856;2023-04-01T22:29:35;96515.59;;;9.70
24201;BMP280;2801;50.972;7.856;2023-04-01T22:32:21;96513.38;;;9.72
24201;BMP280;2801;50.972;7.856;2023-04-01T22:43:46;96531.66;;;9.70
24201;BMP280;2801;50.972;7.856;2023-04-01T22:46:29;96525.22;;;9.71
24201;BMP280;2801;50.972;7.856;2023-04-01T22:52:27;96534.44;;;9.73
24201;BMP280;2801;50.972;7.856;2023-04-01T22:55:10;96541.78;;;9.76
24201;BMP280;2801;50.972;7.856;2023-04-01T22:57:54;96543.69;;;9.76
24201;BMP280;2801;50.972;7.856;2023-04-01T23:00:30;96547.91;;;9.77
24201;BMP280;2801;50.972;7.856;2023-04-01T23:05:54;96556.50;;;9.82
24201;BMP280;2801;50.972;7.856;2023-04-01T23:11:54;96559.63;;;9.84
24201;BMP280;2801;50.972;7.856;2023-04-01T23:28:48;96572.22;;;9.84
24201;BMP280;2801;50.972;7.856;2023-04-01T23:31:28;96577.47;;;9.80
24201;BMP280;2801;50.972;7.856;2023-04-01T23:34:33;96584.25;;;9.78
24201;BMP280;2801;50.972;7.856;2023-04-01T23:37:10;96586.19;;;9.77
24201;BMP280;2801;50.972;7.856;2023-04-01T23:39:41;96583.38;;;9.74
24201;BMP280;2801;50.972;7.856;2023-04-01T23:45:00;96593.66;;;9.72
24201;BMP280;2801;50.972;7.856;2023-04-01T23:47:36;96597.09;;;9.72
24201;BMP280;2801;50.972;7.856;2023-04-01T23:50:13;96603.34;;;9.76
24201;BMP280;2801;50.972;7.856;2023-04-01T23:53:00;96609.59;;;9.80
24201;BMP280;2801;50.972;7.856;2023-04-01T23:55:33;96612.38;;;9.84
